Time;durP1;ratioP1;P1;durP2;ratioP2;P2;SDS_P1;SDS_P2;PMS_P1;PMS_P2;Temp;Humidity;BMP_temperature;BMP_pressure;BME280_temperature;BME280_humidity;BME280_pressure;Samples;Min_cycle;Max_cycle;Signal;HPM_P1;HPM_P2
2020/12/14 00:00:26;;;;;;;35.95;21.45;;;205.10;1996.80;;;;;;5036373;28;20133;-79
2020/12/14 00:02:52;;;;;;;39.60;23.65;;;205.10;1996.80;;;;;;5037615;28;20056;-79
2020/12/14 00:05:17;;;;;;;45.38;25.55;;;205.10;1996.80;;;;;;5036608;28;20029;-80
2020/12/14 00:07:43;;;;;;;44.72;25.00;;;205.20;1996.80;;;;;;5038048;28;20080;-81
2020/12/14 00:10:09;;;;;;;44.72;24.90;;;205.10;1996.80;;;;;;5037958;28;20820;-79
2020/12/14 00:12:35;;;;;;;44.15;26.20;;;205.10;1996.80;;;;;;5037886;28;20032;-80
2020/12/14 00:15:01;;;;;;;40.75;24.98;;;205.20;1996.80;;;;;;5037319;28;20028;-80
2020/12/14 00:17:26;;;;;;;39.30;23.33;;;205.10;1996.80;;;;;;5037028;28;20109;-78
2020/12/14 00:19:52;;;;;;;35.80;22.50;;;205.10;1996.80;;;;;;5037625;28;20067;-79
2020/12/14 00:22:18;;;;;;;34.17;22.48;;;205.20;1996.80;;;;;;5037461;28;20025;-79
2020/12/14 00:24:44;;;;;;;31.10;20.70;;;205.10;1996.80;;;;;;5036928;28;20381;-79
2020/12/14 00:27:10;;;;;;;33.30;21.02;;;205.10;1996.80;;;;;;5037648;28;20048;-79
2020/12/14 00:29:35;;;;;;;33.42;20.45;;;205.10;1996.80;;;;;;5037576;28;20301;-79
2020/12/14 00:32:01;;;;;;;35.30;21.17;;;205.10;1996.80;;;;;;5036866;28;20026;-80
2020/12/14 00:34:27;;;;;;;33.22;20.42;;;205.10;1996.80;;;;;;5037778;28;20049;-80
2020/12/14 00:36:53;;;;;;;34.90;21.50;;;205.10;2022.40;;;;;;5037243;28;20029;-80
2020/12/14 00:39:18;;;;;;;28.17;16.63;;;205.10;2022.40;;;;;;5037466;28;20032;-82
2020/12/14 00:41:44;;;;;;;29.35;18.35;;;205.10;1971.20;;;;;;5044186;28;20033;-82
2020/12/14 00:44:10;;;;;;;26.90;18.40;;;205.10;1971.20;;;;;;5037261;28;20316;-80
2020/12/14 00:46:35;;;;;;;26.67;18.13;;;205.10;1945.60;;;;;;5037273;28;20109;-80
2020/12/14 00:49:01;;;;;;;25.83;16.70;;;205.10;1945.60;;;;;;5037116;28;20053;-80
2020/12/14 00:51:28;;;;;;;30.58;19.08;;;205.10;1945.60;;;;;;5037345;28;20097;-79
2020/12/14 00:53:55;;;;;;;30.95;19.52;;;205.10;1945.60;;;;;;5037027;28;20022;-80
2020/12/14 00:56:21;;;;;;;31.88;20.30;;;205.10;1971.20;;;;;;5037290;28;20041;-80
2020/12/14 00:58:47;;;;;;;39.10;22.30;;;205.10;1945.60;;;;;;5037186;28;20423;-80
2020/12/14 01:01:14;;;;;;;89.82;37.53;;;205.10;1971.20;;;;;;5036042;28;20025;-79
2020/12/14 01:03:40;;;;;;;122.97;48.75;;;205.10;1945.60;;;;;;5037031;28;20033;-79
2020/12/14 01:06:05;;;;;;;87.10;40.35;;;205.10;1945.60;;;;;;5037106;28;20025;-79
2020/12/14 01:09:11;;;;;;;81.55;38.63;;;205.10;1945.60;;;;;;5037229;28;20022;-79
2020/12/14 01:11:37;;;;;;;83.75;39.33;;;205.10;1945.60;;;;;;5037460;28;20064;-79
2020/12/14 01:14:03;;;;;;;71.63;38.80;;;205.10;1945.60;;;;;;5040075;28;20025;-79
2020/12/14 01:16:29;;;;;;;68.70;38.85;;;205.10;1945.60;;;;;;5040827;28;20112;-79
2020/12/14 01:18:55;;;;;;;58.70;32.25;;;205.00;1945.60;;;;;;5040616;28;20124;-79
2020/12/14 01:21:22;;;;;;;57.38;32.33;;;205.10;1945.60;;;;;;5040614;28;20060;-80
2020/12/14 01:23:56;;;;;;;51.47;30.00;;;205.10;1945.60;;;;;;5038379;28;20488;-80
2020/12/14 01:26:22;;;;;;;46.00;28.00;;;205.10;1945.60;;;;;;5040459;28;20439;-80
2020/12/14 01:28:48;;;;;;;49.20;25.85;;;205.10;1945.60;;;;;;5040377;28;20021;-79
2020/12/14 01:31:14;;;;;;;36.95;21.25;;;205.00;1920.00;;;;;;5040923;28;20080;-79
2020/12/14 01:33:40;;;;;;;29.48;19.77;;;205.10;1920.00;;;;;;5040437;28;20036;-80
2020/12/14 01:36:06;;;;;;;33.42;20.08;;;205.00;1920.00;;;;;;5040390;28;20108;-79
2020/12/14 01:38:32;;;;;;;56.55;25.50;;;205.00;1920.00;;;;;;5040338;28;20099;-79
2020/12/14 01:40:57;;;;;;;47.33;25.52;;;205.00;1920.00;;;;;;5039529;28;20032;-78
2020/12/14 01:43:23;;;;;;;64.40;28.80;;;205.00;1920.00;;;;;;5039138;28;20152;-79
2020/12/14 01:45:50;;;;;;;56.90;26.00;;;205.00;1945.60;;;;;;5040249;28;20030;-79
2020/12/14 01:48:16;;;;;;;51.08;25.25;;;205.00;1920.00;;;;;;5039891;28;20415;-79
2020/12/14 01:50:42;;;;;;;39.35;21.90;;;205.00;1920.00;;;;;;5040191;28;20029;-79
2020/12/14 01:53:18;;;;;;;41.20;23.50;;;205.00;1920.00;;;;;;5039761;28;20351;-79
2020/12/14 01:55:47;;;;;;;44.45;22.73;;;205.00;1894.40;;;;;;5039141;28;20045;-79
2020/12/14 01:58:13;;;;;;;51.65;24.42;;;205.00;1920.00;;;;;;5039050;28;20021;-78
2020/12/14 02:00:38;;;;;;;47.65;24.45;;;204.90;1920.00;;;;;;5040280;28;20075;-78
2020/12/14 02:03:04;;;;;;;43.75;23.05;;;205.00;1920.00;;;;;;5039859;28;20033;-78
2020/12/14 02:05:30;;;;;;;37.05;23.00;;;204.90;1920.00;;;;;;5039807;28;20051;-78
2020/12/14 02:07:56;;;;;;;33.20;21.15;;;205.00;1920.00;;;;;;5038740;28;20022;-78
2020/12/14 02:10:41;;;;;;;32.55;20.25;;;204.90;1920.00;;;;;;5040085;28;20022;-78
2020/12/14 02:13:07;;;;;;;33.13;20.33;;;204.90;1920.00;;;;;;5038730;28;20025;-78
2020/12/14 02:15:33;;;;;;;76.18;30.17;;;205.00;1945.60;;;;;;5039698;28;20195;-79
2020/12/14 02:17:58;;;;;;;61.95;27.17;;;204.90;1945.60;;;;;;5039575;28;20411;-78
2020/12/14 02:20:24;;;;;;;48.42;23.10;;;204.90;1945.60;;;;;;5039715;28;20120;-78
2020/12/14 02:22:50;;;;;;;31.42;19.27;;;204.90;1945.60;;;;;;5039204;28;20319;-78
2020/12/14 02:25:15;;;;;;;28.90;17.77;;;204.90;1920.00;;;;;;5035929;28;20103;-79
2020/12/14 02:27:43;;;;;;;28.30;18.00;;;204.90;1920.00;;;;;;5039593;28;20029;-78
2020/12/14 02:30:10;;;;;;;40.97;22.13;;;204.90;1920.00;;;;;;5039463;28;20323;-78
2020/12/14 02:32:36;;;;;;;43.30;21.35;;;204.90;1920.00;;;;;;5039261;28;20027;-80
2020/12/14 02:35:02;;;;;;;60.22;25.52;;;204.90;1920.00;;;;;;5039165;28;20105;-78
2020/12/14 02:37:30;;;;;;;43.22;23.63;;;204.90;1920.00;;;;;;5039165;28;20025;-79
2020/12/14 02:39:56;;;;;;;50.22;23.58;;;204.90;1920.00;;;;;;5038029;28;20029;-79
2020/12/14 02:42:23;;;;;;;61.85;26.10;;;204.90;1920.00;;;;;;5038722;28;20045;-79
2020/12/14 02:44:51;;;;;;;68.72;27.92;;;204.90;1920.00;;;;;;5038239;28;20037;-81
2020/12/14 02:47:17;;;;;;;71.75;26.88;;;204.90;1920.00;;;;;;5039349;28;20080;-80
2020/12/14 02:49:44;;;;;;;66.00;29.00;;;204.90;1920.00;;;;;;5043492;28;20022;-81
2020/12/14 02:52:11;;;;;;;95.80;32.58;;;204.90;1920.00;;;;;;5043997;28;20102;-79
2020/12/14 02:54:38;;;;;;;61.72;26.08;;;204.90;1920.00;;;;;;5038022;28;20029;-79
2020/12/14 02:57:04;;;;;;;52.70;21.70;;;205.00;1945.60;;;;;;5038537;28;20091;-78
2020/12/14 02:59:30;;;;;;;40.60;21.60;;;204.90;1945.60;;;;;;5038808;28;20026;-79
2020/12/14 03:01:56;;;;;;;28.00;19.02;;;204.90;1945.60;;;;;;5037989;28;20029;-79
2020/12/14 03:04:22;;;;;;;27.08;17.75;;;205.00;1945.60;;;;;;5038726;28;20029;-79
2020/12/14 03:06:49;;;;;;;26.10;16.98;;;204.90;1971.20;;;;;;5038693;28;20029;-79
2020/12/14 03:09:16;;;;;;;25.70;16.80;;;204.90;1945.60;;;;;;5038805;28;20017;-79
2020/12/14 03:11:42;;;;;;;25.05;16.40;;;204.90;1971.20;;;;;;5038545;28;20017;-78
2020/12/14 03:14:10;;;;;;;26.83;16.95;;;204.90;1971.20;;;;;;5038785;28;20096;-78
2020/12/14 03:16:43;;;;;;;25.05;16.02;;;204.90;1971.20;;;;;;5038411;28;20399;-78
2020/12/14 03:19:09;;;;;;;24.52;17.27;;;204.90;1971.20;;;;;;5038480;28;20056;-79
2020/12/14 03:21:35;;;;;;;26.60;17.98;;;204.90;1971.20;;;;;;5038503;28;20029;-80
2020/12/14 03:24:21;;;;;;;28.08;17.95;;;204.90;1971.20;;;;;;5038658;28;20028;-80
2020/12/14 03:26:50;;;;;;;26.70;17.77;;;204.90;1971.20;;;;;;5038038;28;20068;-78
2020/12/14 03:29:18;;;;;;;24.40;15.77;;;204.90;1971.20;;;;;;5038723;28;20025;-79
2020/12/14 03:31:44;;;;;;;29.17;19.15;;;204.90;1971.20;;;;;;5038282;28;20052;-78
2020/12/14 03:34:10;;;;;;;30.65;18.85;;;204.90;1971.20;;;;;;5037908;28;20026;-79
2020/12/14 03:36:36;;;;;;;29.52;18.05;;;204.90;1971.20;;;;;;5037974;28;20030;-78
2020/12/14 03:39:02;;;;;;;28.25;18.05;;;204.90;1971.20;;;;;;5038235;28;20033;-78
2020/12/14 03:41:28;;;;;;;24.52;16.30;;;204.90;1971.20;;;;;;5038091;28;20029;-79
2020/12/14 03:43:53;;;;;;;33.13;18.02;;;204.90;1945.60;;;;;;5038011;28;20450;-78
2020/12/14 03:46:22;;;;;;;27.80;17.92;;;204.90;1971.20;;;;;;5037554;28;20072;-78
2020/12/14 03:48:48;;;;;;;29.50;18.23;;;204.80;1945.60;;;;;;5038140;28;20025;-78
2020/12/14 03:51:15;;;;;;;25.25;16.30;;;204.80;1945.60;;;;;;5037741;28;20036;-78
2020/12/14 03:53:40;;;;;;;27.10;18.20;;;204.80;1971.20;;;;;;5038266;28;20030;-78
2020/12/14 03:56:26;;;;;;;31.10;19.55;;;180.10;1971.20;;;;;;5037512;28;20034;-78
2020/12/14 03:58:53;;;;;;;26.80;16.75;;;204.80;1971.20;;;;;;5036422;28;20095;-79
2020/12/14 04:01:20;;;;;;;33.78;21.48;;;180.10;1971.20;;;;;;5037590;28;20026;-78
2020/12/14 04:03:45;;;;;;;40.63;23.00;;;180.10;1971.20;;;;;;5037673;28;20056;-79
2020/12/14 04:06:19;;;;;;;37.40;21.20;;;180.10;1945.60;;;;;;5037643;28;20053;-81
2020/12/14 04:08:46;;;;;;;38.05;22.02;;;180.10;1971.20;;;;;;5037449;28;20026;-78
2020/12/14 04:11:51;;;;;;;35.30;21.88;;;204.80;1971.20;;;;;;5037579;28;20028;-78
2020/12/14 04:14:17;;;;;;;30.75;20.23;;;204.80;1945.60;;;;;;5036398;28;20025;-78
2020/12/14 04:16:42;;;;;;;34.45;20.50;;;204.80;1971.20;;;;;;5037620;28;20305;-79
2020/12/14 04:19:09;;;;;;;28.77;18.65;;;204.80;1945.60;;;;;;5037818;28;20029;-79
2020/12/14 04:21:35;;;;;;;27.77;18.15;;;204.80;1971.20;;;;;;5036401;28;20029;-79
2020/12/14 04:27:36;;;;;;;24.90;17.33;;;204.80;1945.60;;;;;;5030009;28;20087;-79
2020/12/14 04:30:02;;;;;;;23.80;15.65;;;180.10;1945.60;;;;;;5037650;28;20029;-79
2020/12/14 04:32:28;;;;;;;22.50;16.15;;;180.10;1945.60;;;;;;5036179;28;20033;-79
2020/12/14 04:34:53;;;;;;;24.48;15.75;;;180.10;1945.60;;;;;;5037401;28;20518;-78
2020/12/14 04:37:19;;;;;;;24.33;16.90;;;180.10;1945.60;;;;;;5037309;28;20017;-78
2020/12/14 04:39:45;;;;;;;21.20;15.02;;;180.10;1945.60;;;;;;5037459;28;20064;-79
2020/12/14 04:42:11;;;;;;;20.77;14.90;;;180.10;1920.00;;;;;;5037241;28;20025;-78
2020/12/14 04:44:38;;;;;;;21.08;15.07;;;180.00;1945.60;;;;;;5036743;28;20030;-79
2020/12/14 04:47:04;;;;;;;22.00;15.38;;;180.10;1945.60;;;;;;5037173;28;20033;-79
2020/12/14 04:49:32;;;;;;;21.38;14.63;;;180.10;1920.00;;;;;;5036876;28;20109;-79
2020/12/14 04:52:01;;;;;;;22.75;15.88;;;180.00;1945.60;;;;;;5036111;28;20112;-80
2020/12/14 04:55:13;;;;;;;25.85;15.73;;;180.10;1945.60;;;;;;5037195;28;20407;-80
2020/12/14 04:57:39;;;;;;;24.27;16.20;;;180.00;1945.60;;;;;;5035965;28;20037;-81
2020/12/14 05:00:07;;;;;;;24.98;16.45;;;180.00;1971.20;;;;;;5039061;28;20021;-81
2020/12/14 05:02:33;;;;;;;26.42;16.35;;;180.00;1945.60;;;;;;5040495;28;20026;-79
2020/12/14 05:04:59;;;;;;;24.75;15.93;;;180.10;1945.60;;;;;;5036885;28;20112;-79
2020/12/14 05:07:45;;;;;;;28.88;18.10;;;180.10;1945.60;;;;;;5037251;28;20022;-79
2020/12/14 05:10:14;;;;;;;25.95;16.90;;;180.10;1945.60;;;;;;5036704;28;20114;-79
2020/12/14 05:12:44;;;;;;;24.10;16.77;;;180.10;1945.60;;;;;;5036990;28;20021;-78
2020/12/14 05:15:16;;;;;;;27.25;17.73;;;180.10;1920.00;;;;;;5037265;28;20047;-80
2020/12/14 05:17:42;;;;;;;22.98;16.25;;;180.10;1945.60;;;;;;5036771;28;20408;-80
2020/12/14 05:20:19;;;;;;;26.23;16.55;;;180.10;1945.60;;;;;;5036856;28;20025;-80
2020/12/14 05:23:12;;;;;;;28.23;16.85;;;180.10;1945.60;;;;;;5036982;28;20030;-80
2020/12/14 05:25:38;;;;;;;30.17;18.60;;;180.10;1945.60;;;;;;5036882;28;20029;-79
2020/12/14 05:28:13;;;;;;;23.40;15.63;;;180.10;1945.60;;;;;;5036496;28;20053;-79
2020/12/14 05:30:44;;;;;;;24.70;17.40;;;180.00;1920.00;;;;;;5036975;28;20106;-80
2020/12/14 05:33:12;;;;;;;27.70;18.75;;;180.10;1945.60;;;;;;5037021;28;20365;-79
2020/12/14 05:35:39;;;;;;;28.80;20.00;;;180.10;1920.00;;;;;;5035623;28;20034;-80
2020/12/14 05:38:30;;;;;;;28.52;20.20;;;180.00;1945.60;;;;;;5036929;28;20060;-80
2020/12/14 05:41:01;;;;;;;36.60;23.27;;;180.10;1945.60;;;;;;5014974;28;20153;-80
2020/12/14 05:43:31;;;;;;;30.52;18.77;;;180.10;1945.60;;;;;;5031396;28;20037;-79
2020/12/14 05:46:17;;;;;;;;;;;180.00;1920.00;;;;;;5015228;28;20385;-78
2020/12/14 05:48:43;;;;;;;25.02;17.33;;;180.10;1920.00;;;;;;5014517;28;19914;-80
2020/12/14 05:51:10;;;;;;;23.00;16.33;;;179.90;1945.60;;;;;;5015058;28;20050;-80
2020/12/14 05:53:53;;;;;;;22.65;15.52;;;179.90;1945.60;;;;;;5014918;28;20505;-80
2020/12/14 05:56:38;;;;;;;22.23;15.80;;;180.00;1945.60;;;;;;5014869;28;20041;-80
2020/12/14 05:59:04;;;;;;;25.73;16.40;;;180.00;1945.60;;;;;;5017230;28;20064;-81
2020/12/14 06:01:29;;;;;;;24.30;16.23;;;179.90;1945.60;;;;;;5018779;28;20456;-81
2020/12/14 06:03:55;;;;;;;29.48;16.63;;;179.90;1945.60;;;;;;5003044;28;20140;-81
2020/12/14 06:06:22;;;;;;;32.92;22.92;;;180.00;1945.60;;;;;;5019805;28;20053;-80
2020/12/14 06:08:47;;;;;;;35.08;22.08;;;180.00;1971.20;;;;;;5002380;28;20022;-80
2020/12/14 06:11:14;;;;;;;30.58;21.23;;;179.90;1971.20;;;;;;5018539;28;20037;-79
2020/12/14 06:13:50;;;;;;;32.45;23.05;;;179.90;1945.60;;;;;;5001781;28;20030;-80
2020/12/14 06:16:26;;;;;;;32.83;21.98;;;180.00;1945.60;;;;;;5018231;28;20057;-80
2020/12/14 06:18:53;;;;;;;29.30;20.90;;;180.00;1945.60;;;;;;5037737;28;20473;-79
2020/12/14 06:21:23;;;;;;;32.95;21.02;;;180.00;1971.20;;;;;;5039795;28;20109;-79
2020/12/14 06:23:51;;;;;;;33.00;21.38;;;180.00;1971.20;;;;;;5039593;28;20449;-79
2020/12/14 06:26:21;;;;;;;39.28;24.10;;;180.00;1971.20;;;;;;5039568;28;20044;-80
2020/12/14 06:28:51;;;;;;;35.55;23.85;;;179.90;1971.20;;;;;;5039213;28;20025;-83
2020/12/14 06:31:37;;;;;;;39.08;26.30;;;179.90;1971.20;;;;;;5038499;28;20541;-79
2020/12/14 06:34:05;;;;;;;41.88;26.13;;;180.00;1971.20;;;;;;5039535;28;20315;-79
2020/12/14 06:36:41;;;;;;;36.78;24.25;;;179.90;1971.20;;;;;;5038303;28;20057;-79
2020/12/14 06:39:28;;;;;;;37.58;26.27;;;180.00;1971.20;;;;;;5039355;28;20025;-80
2020/12/14 06:42:14;;;;;;;36.15;24.05;;;180.00;1971.20;;;;;;5039214;28;20037;-80
2020/12/14 06:44:42;;;;;;;48.00;29.75;;;179.90;1971.20;;;;;;5017314;28;20038;-80
2020/12/14 06:47:16;;;;;;;52.45;30.20;;;179.90;1971.20;;;;;;5017609;28;20044;-80
2020/12/14 06:49:43;;;;;;;43.08;27.55;;;179.90;1971.20;;;;;;5017746;28;20125;-80
2020/12/14 06:52:09;;;;;;;44.80;27.02;;;179.90;1971.20;;;;;;5017507;28;20467;-80
2020/12/14 06:54:47;;;;;;;51.58;30.27;;;180.00;1971.20;;;;;;5001018;28;20343;-81
2020/12/14 06:57:51;;;;;;;79.63;38.22;;;180.00;1971.20;;;;;;5017635;28;20022;-80
2020/12/14 07:00:17;;;;;;;74.97;36.17;;;179.90;1971.20;;;;;;4962181;28;20439;-80
2020/12/14 07:02:43;;;;;;;60.67;35.13;;;180.00;1971.20;;;;;;4978312;28;20031;-80
2020/12/14 07:05:30;;;;;;;48.83;31.05;;;180.00;1971.20;;;;;;4978315;28;20314;-80
2020/12/14 07:07:59;;;;;;;47.28;29.92;;;179.90;1971.20;;;;;;4978189;28;20073;-81
2020/12/14 07:10:28;;;;;;;53.13;30.23;;;179.90;1971.20;;;;;;4977642;28;20030;-80
2020/12/14 07:12:55;;;;;;;67.45;36.88;;;179.90;1971.20;;;;;;4982641;28;20027;-79
2020/12/14 07:15:32;;;;;;;70.75;38.17;;;179.90;1996.80;;;;;;4979557;28;20031;-80
2020/12/14 07:18:21;;;;;;;62.20;36.92;;;179.90;1971.20;;;;;;4962141;28;20069;-79
2020/12/14 07:20:53;;;;;;;49.08;30.38;;;179.90;1996.80;;;;;;4982135;28;20106;-79
2020/12/14 07:23:20;;;;;;;43.13;28.13;;;180.00;1996.80;;;;;;5000514;28;20042;-79
2020/12/14 07:25:47;;;;;;;43.83;28.02;;;180.00;1996.80;;;;;;5000434;28;20061;-79
2020/12/14 07:28:14;;;;;;;45.90;28.58;;;180.00;1996.80;;;;;;5016828;28;20057;-79
2020/12/14 07:30:40;;;;;;;44.88;28.83;;;180.10;1971.20;;;;;;5012177;28;20136;-80
2020/12/14 07:33:06;;;;;;;54.28;32.95;;;180.10;1996.80;;;;;;5038496;28;20415;-80
2020/12/14 07:35:32;;;;;;;58.95;33.10;;;180.10;1996.80;;;;;;5037540;28;20048;-80
2020/12/14 07:37:57;;;;;;;55.15;31.08;;;180.10;1971.20;;;;;;5037342;28;20371;-80
2020/12/14 07:40:41;;;;;;;51.78;32.15;;;180.10;1971.20;;;;;;5038456;28;20674;-80
2020/12/14 07:43:07;;;;;;;50.33;30.30;;;180.10;1971.20;;;;;;5038274;28;20029;-80
2020/12/14 07:45:33;;;;;;;51.42;33.38;;;180.10;1971.20;;;;;;5038278;28;20063;-78
2020/12/14 07:47:59;;;;;;;52.50;33.33;;;180.10;1971.20;;;;;;5036731;28;20034;-79
2020/12/14 07:50:26;;;;;;;50.72;30.73;;;179.90;1996.80;;;;;;5037911;28;20028;-78
2020/12/14 07:52:53;;;;;;;54.28;31.58;;;180.00;1996.80;;;;;;5037674;28;20468;-80
2020/12/14 07:55:21;;;;;;;48.78;31.65;;;180.00;1996.80;;;;;;5037930;28;20024;-80
2020/12/14 07:57:47;;;;;;;51.05;31.52;;;180.10;1996.80;;;;;;5037634;28;20021;-80
2020/12/14 08:00:19;;;;;;;51.95;33.88;;;180.10;1996.80;;;;;;5036761;28;20029;-80
2020/12/14 08:02:45;;;;;;;50.15;31.80;;;180.10;1996.80;;;;;;5038034;28;20021;-79
2020/12/14 08:05:12;;;;;;;62.65;38.33;;;180.10;1996.80;;;;;;5027649;28;20026;-79
2020/12/14 08:08:00;;;;;;;61.40;36.92;;;180.00;1996.80;;;;;;5017825;28;20022;-78
2020/12/14 08:10:33;;;;;;;62.97;38.00;;;180.10;1996.80;;;;;;5018099;28;20025;-80
2020/12/14 08:13:02;;;;;;;65.15;39.47;;;180.10;1996.80;;;;;;5018183;28;20029;-80
2020/12/14 08:15:29;;;;;;;66.60;41.08;;;180.10;1996.80;;;;;;5016692;28;20022;-79
2020/12/14 08:17:57;;;;;;;60.83;38.95;;;180.10;1996.80;;;;;;5017571;28;20034;-79
2020/12/14 08:20:26;;;;;;;66.70;38.85;;;180.10;1996.80;;;;;;5017781;28;20030;-83
2020/12/14 08:22:51;;;;;;;54.33;33.75;;;180.10;1996.80;;;;;;5016502;28;20025;-80
2020/12/14 08:25:28;;;;;;;58.50;35.53;;;180.10;1996.80;;;;;;5019747;28;20104;-77
2020/12/14 08:28:02;;;;;;;80.00;45.10;;;180.10;1996.80;;;;;;5035849;28;20084;-79
2020/12/14 08:30:28;;;;;;;81.18;45.55;;;180.10;1996.80;;;;;;5037538;28;20041;-78
2020/12/14 08:33:06;;;;;;;82.70;46.00;;;180.10;1996.80;;;;;;5036631;28;20032;-81
2020/12/14 08:35:32;;;;;;;58.03;35.65;;;180.10;1996.80;;;;;;5036690;28;20048;-79
2020/12/14 08:38:06;;;;;;;66.78;37.00;;;180.10;1996.80;;;;;;5037100;28;20021;-78
2020/12/14 08:41:03;;;;;;;61.25;39.13;;;180.10;1996.80;;;;;;5035950;28;20022;-80
2020/12/14 08:43:31;;;;;;;79.63;45.08;;;180.10;1996.80;;;;;;5037150;28;20423;-79
2020/12/14 08:46:14;;;;;;;59.28;34.90;;;180.10;2022.40;;;;;;5036737;28;20407;-79
2020/12/14 08:48:48;;;;;;;55.72;35.30;;;180.10;1996.80;;;;;;5035971;28;20073;-81
2020/12/14 08:51:19;;;;;;;59.17;35.30;;;180.10;2022.40;;;;;;5037403;28;20033;-83
2020/12/14 08:53:47;;;;;;;59.83;37.88;;;180.10;2022.40;;;;;;5036227;28;20415;-81
2020/12/14 08:56:16;;;;;;;63.58;36.30;;;180.10;1996.80;;;;;;5037030;28;20041;-82
2020/12/14 08:58:56;;;;;;;62.03;35.58;;;204.80;1996.80;;;;;;5037150;28;20032;-82
2020/12/14 09:01:27;;;;;;;58.13;36.63;;;204.80;1996.80;;;;;;5036945;28;20029;-81
2020/12/14 09:03:58;;;;;;;64.03;37.47;;;204.80;1996.80;;;;;;5037540;28;20255;-81
2020/12/14 09:06:30;;;;;;;62.42;37.35;;;204.80;1996.80;;;;;;5038445;28;20037;-81
2020/12/14 09:09:11;;;;;;;58.85;34.38;;;204.80;1996.80;;;;;;5036735;28;20109;-83
2020/12/14 09:11:51;;;;;;;62.08;37.17;;;204.80;1996.80;;;;;;5037725;28;20033;-82
2020/12/14 09:14:18;;;;;;;;;;;204.80;1996.80;;;;;;5037295;28;20076;-83
2020/12/14 09:16:48;;;;;;;58.08;35.08;;;180.10;1996.80;;;;;;5036782;28;19921;-82
2020/12/14 09:19:22;;;;;;;54.92;31.10;;;204.80;1996.80;;;;;;5036995;28;20112;-82
2020/12/14 09:21:48;;;;;;;54.83;32.63;;;180.10;1996.80;;;;;;5037891;28;20033;-83
2020/12/14 09:24:20;;;;;;;53.88;34.85;;;180.10;1996.80;;;;;;5040112;28;20034;-82
2020/12/14 09:26:48;;;;;;;54.00;31.58;;;180.10;1996.80;;;;;;5036234;28;20050;-78
2020/12/14 09:29:14;;;;;;;53.22;34.13;;;180.10;1996.80;;;;;;5031150;28;20091;-81
2020/12/14 09:31:48;;;;;;;53.30;34.40;;;204.80;1996.80;;;;;;5027982;28;20022;-82
2020/12/14 09:34:14;;;;;;;62.85;39.13;;;204.80;1996.80;;;;;;5034883;28;20486;-80
2020/12/14 09:36:39;;;;;;;66.32;41.03;;;204.80;1996.80;;;;;;5038702;28;20073;-80
2020/12/14 09:39:05;;;;;;;58.50;38.10;;;204.80;1996.80;;;;;;5038645;28;20048;-81
2020/12/14 09:41:31;;;;;;;81.00;52.15;;;204.80;1996.80;;;;;;5038987;28;20446;-80
2020/12/14 09:43:58;;;;;;;76.53;45.95;;;204.90;1996.80;;;;;;5039687;28;20022;-79
2020/12/14 09:46:28;;;;;;;72.28;41.90;;;204.90;1996.80;;;;;;5039566;28;20048;-80
2020/12/14 09:48:55;;;;;;;53.33;33.13;;;204.90;1996.80;;;;;;5038991;28;20049;-78
2020/12/14 09:51:22;;;;;;;53.58;34.20;;;204.90;1971.20;;;;;;5063247;28;20026;-79
2020/12/14 09:53:48;;;;;;;55.13;36.47;;;204.80;1996.80;;;;;;5039325;28;20038;-78
2020/12/14 09:56:14;;;;;;;59.15;37.20;;;204.80;1996.80;;;;;;5038127;28;20029;-80
2020/12/14 09:58:40;;;;;;;64.10;38.75;;;204.80;1996.80;;;;;;5039649;28;20045;-80
2020/12/14 10:01:06;;;;;;;64.47;38.40;;;204.90;1996.80;;;;;;5060305;28;20068;-81
2020/12/14 10:03:33;;;;;;;52.30;32.40;;;204.90;1996.80;;;;;;5039165;28;20411;-80
2020/12/14 10:05:59;;;;;;;49.30;30.00;;;204.90;1996.80;;;;;;5039975;28;20058;-83
2020/12/14 10:08:25;;;;;;;50.42;32.72;;;204.90;1996.80;;;;;;5025896;28;20407;-82
2020/12/14 10:10:51;;;;;;;57.85;38.97;;;204.90;1996.80;;;;;;5039799;28;20033;-82
2020/12/14 10:13:18;;;;;;;62.70;38.13;;;204.90;1996.80;;;;;;5038942;28;20104;-80
2020/12/14 10:15:44;;;;;;;64.43;41.60;;;204.90;1996.80;;;;;;5038402;28;20033;-81
2020/12/14 10:18:10;;;;;;;51.40;33.80;;;204.90;1996.80;;;;;;5037834;28;20034;-82
2020/12/14 10:20:35;;;;;;;47.85;31.65;;;204.90;1996.80;;;;;;5040615;28;20034;-83
2020/12/14 10:23:01;;;;;;;53.22;34.13;;;204.90;1996.80;;;;;;5040153;28;20419;-84
2020/12/14 10:25:27;;;;;;;52.20;33.45;;;204.90;1996.80;;;;;;5040502;28;20025;-84
2020/12/14 10:27:52;;;;;;;55.15;33.00;;;204.90;1996.80;;;;;;5039711;28;20667;-84
2020/12/14 10:30:19;;;;;;;54.83;33.83;;;204.90;1996.80;;;;;;5040734;28;20319;-88
2020/12/14 10:32:46;;;;;;;49.53;30.48;;;205.00;1971.20;;;;;;5040043;28;20091;-81
2020/12/14 10:35:11;;;;;;;47.78;30.02;;;205.00;1996.80;;;;;;5039330;28;20068;-82
2020/12/14 10:37:38;;;;;;;76.97;46.42;;;204.90;1996.80;;;;;;5041084;28;20034;-81
2020/12/14 10:40:05;;;;;;;76.63;50.13;;;204.90;1996.80;;;;;;5040418;28;20457;-84
2020/12/14 10:42:32;;;;;;;55.15;34.20;;;204.90;1996.80;;;;;;5040632;28;20057;-81
2020/12/14 10:44:59;;;;;;;67.25;39.00;;;204.90;2022.40;;;;;;5039455;28;20029;-82
2020/12/14 10:47:25;;;;;;;76.57;43.80;;;204.90;2022.40;;;;;;5038127;28;20048;-81
2020/12/14 10:49:51;;;;;;;67.63;39.22;;;205.00;1996.80;;;;;;5038668;28;20021;-85
2020/12/14 10:52:17;;;;;;;60.90;39.28;;;205.00;1996.80;;;;;;5037796;28;20030;-85
2020/12/14 10:54:43;;;;;;;76.43;48.78;;;205.00;2022.40;;;;;;5037289;28;20369;-83
2020/12/14 10:57:09;;;;;;;76.78;51.08;;;205.00;2022.40;;;;;;5038519;28;20057;-77
2020/12/14 10:59:34;;;;;;;64.13;42.42;;;204.90;2022.40;;;;;;5037826;28;20032;-81
2020/12/14 11:02:00;;;;;;;58.00;36.75;;;205.00;2022.40;;;;;;5038471;28;20022;-84
2020/12/14 11:04:26;;;;;;;45.63;31.48;;;205.00;2022.40;;;;;;5038659;28;20075;-83
2020/12/14 11:06:51;;;;;;;56.20;37.58;;;205.00;2022.40;;;;;;5038575;28;20067;-83
2020/12/14 11:09:17;;;;;;;51.78;35.25;;;205.00;2022.40;;;;;;5037038;28;20339;-81
2020/12/14 11:11:43;;;;;;;57.08;40.55;;;205.00;1996.80;;;;;;5037944;28;20025;-79
2020/12/14 11:14:09;;;;;;;50.95;36.58;;;205.00;1996.80;;;;;;5037990;28;20028;-81
2020/12/14 11:16:39;;;;;;;50.20;32.95;;;205.00;1996.80;;;;;;5037735;28;20029;-80
2020/12/14 11:19:04;;;;;;;35.63;25.73;;;205.00;1996.80;;;;;;5039266;28;20037;-85
2020/12/14 11:21:30;;;;;;;42.33;28.88;;;205.00;1996.80;;;;;;5037599;28;20328;-79
2020/12/14 11:23:56;;;;;;;54.40;32.13;;;205.00;1996.80;;;;;;5037554;28;20358;-83
2020/12/14 11:26:37;;;;;;;48.42;30.70;;;205.00;1996.80;;;;;;5037242;28;20038;-80
2020/12/14 11:29:03;;;;;;;45.35;27.42;;;204.90;1996.80;;;;;;5037385;28;20025;-77
2020/12/14 11:31:28;;;;;;;38.85;24.55;;;204.90;1996.80;;;;;;5037644;28;20408;-82
2020/12/14 11:33:54;;;;;;;43.53;26.58;;;204.90;1996.80;;;;;;5037796;28;20037;-79
2020/12/14 11:36:24;;;;;;;43.22;27.98;;;204.90;1996.80;;;;;;5040337;28;20089;-82
2020/12/14 11:38:49;;;;;;;53.67;34.80;;;204.90;2022.40;;;;;;5041752;28;20068;-80
2020/12/14 11:41:15;;;;;;;54.78;31.80;;;204.90;2022.40;;;;;;5037947;28;20053;-77
2020/12/14 11:43:41;;;;;;;47.00;29.10;;;204.90;1996.80;;;;;;5037550;28;20029;-79
2020/12/14 11:46:07;;;;;;;43.90;28.13;;;204.90;1996.80;;;;;;5037705;28;20021;-80
2020/12/14 11:48:32;;;;;;;48.22;31.52;;;204.90;1996.80;;;;;;5036122;28;20420;-78
2020/12/14 11:50:58;;;;;;;46.95;29.20;;;204.90;1996.80;;;;;;5034751;28;20060;-79
2020/12/14 11:53:24;;;;;;;57.92;35.75;;;204.90;1996.80;;;;;;5036782;28;20029;-79
2020/12/14 11:55:49;;;;;;;50.85;31.38;;;204.90;1996.80;;;;;;5036145;28;20407;-84
2020/12/14 11:58:33;;;;;;;52.78;31.83;;;204.90;1996.80;;;;;;5037389;28;20029;-82
2020/12/14 12:00:59;;;;;;;51.53;28.25;;;204.90;1996.80;;;;;;5036604;28;20037;-78
2020/12/14 12:03:24;;;;;;;48.58;27.60;;;204.90;1996.80;;;;;;5036257;28;20149;-79
2020/12/14 12:05:50;;;;;;;47.58;30.73;;;204.90;1996.80;;;;;;5036935;28;20403;-79
2020/12/14 12:08:16;;;;;;;40.97;23.77;;;204.80;1996.80;;;;;;5037230;28;20024;-80
2020/12/14 12:10:41;;;;;;;50.65;28.20;;;204.80;1996.80;;;;;;5037038;28;20045;-80